createdAt,value
2018-10-07T00:00:11.403Z,15.00
2018-10-07T00:02:40.462Z,15.00
2018-10-07T00:05:08.916Z,15.00
2018-10-07T00:07:37.349Z,14.90
2018-10-07T00:10:05.881Z,14.90
2018-10-07T00:12:34.322Z,14.90
2018-10-07T00:15:02.818Z,14.90
2018-10-07T00:17:31.230Z,14.80
2018-10-07T00:19:59.657Z,14.80
2018-10-07T00:22:28.203Z,14.80
2018-10-07T00:24:56.644Z,14.80
2018-10-07T00:27:25.122Z,14.80
2018-10-07T00:29:53.632Z,14.80
2018-10-07T00:32:22.086Z,14.80
2018-10-07T00:34:50.550Z,14.80
2018-10-07T00:37:19.073Z,14.80
2018-10-07T00:39:47.500Z,14.80
2018-10-07T00:42:15.957Z,14.70
2018-10-07T00:44:44.506Z,14.70
2018-10-07T00:47:12.993Z,14.60
2018-10-07T00:49:41.479Z,14.60
2018-10-07T00:52:09.979Z,14.60
2018-10-07T00:54:38.452Z,14.60
2018-10-07T00:57:07.022Z,14.60
2018-10-07T00:59:35.453Z,14.50
2018-10-07T01:02:04.006Z,14.50
2018-10-07T01:04:32.454Z,14.50
2018-10-07T01:07:00.912Z,14.50
2018-10-07T01:09:29.450Z,14.40
2018-10-07T01:11:57.914Z,14.50
2018-10-07T01:14:26.426Z,14.40
2018-10-07T01:16:54.875Z,14.40
2018-10-07T01:19:23.343Z,14.40
2018-10-07T01:21:51.785Z,14.40
2018-10-07T01:24:20.439Z,14.30
2018-10-07T01:26:49.016Z,14.30
2018-10-07T01:29:17.470Z,14.30
2018-10-07T01:31:45.911Z,14.20
2018-10-07T01:34:14.510Z,14.20
2018-10-07T01:36:43.033Z,14.20
2018-10-07T01:39:12.260Z,14.20
2018-10-07T01:41:40.869Z,14.20
2018-10-07T01:44:09.433Z,14.10
2018-10-07T01:46:38.026Z,14.10
2018-10-07T01:49:06.551Z,14.10
2018-10-07T01:51:34.995Z,14.10
2018-10-07T01:54:03.567Z,14.00
2018-10-07T01:56:32.122Z,14.00
2018-10-07T01:59:00.712Z,14.00
2018-10-07T02:01:29.133Z,13.90
2018-10-07T02:03:57.584Z,13.90
2018-10-07T02:06:26.044Z,13.90
2018-10-07T02:08:54.462Z,13.90
2018-10-07T02:11:22.903Z,13.80
2018-10-07T02:13:51.457Z,13.80
2018-10-07T02:16:20.202Z,13.80
2018-10-07T02:18:48.678Z,13.80
2018-10-07T02:21:17.142Z,13.70
2018-10-07T02:23:45.585Z,13.60
2018-10-07T02:26:14.148Z,13.60
2018-10-07T02:28:42.726Z,13.50
2018-10-07T02:31:11.385Z,13.40
2018-10-07T02:33:39.826Z,13.40
2018-10-07T02:36:08.320Z,13.40
2018-10-07T02:38:38.198Z,13.30
2018-10-07T02:41:06.856Z,13.20
2018-10-07T02:43:35.442Z,13.20
2018-10-07T02:46:04.040Z,13.10
2018-10-07T02:48:32.532Z,13.10
2018-10-07T02:51:01.207Z,13.00
2018-10-07T02:53:29.823Z,13.00
2018-10-07T02:55:58.405Z,13.00
2018-10-07T02:58:27.791Z,12.90
2018-10-07T03:00:56.888Z,12.90
2018-10-07T03:03:25.520Z,12.80
2018-10-07T03:05:54.067Z,12.80
2018-10-07T03:08:22.642Z,12.80
2018-10-07T03:10:51.318Z,12.80
2018-10-07T03:13:19.813Z,12.70
2018-10-07T03:15:48.429Z,12.70
2018-10-07T03:18:16.912Z,12.70
2018-10-07T03:20:45.356Z,12.60
2018-10-07T03:23:13.830Z,12.60
2018-10-07T03:25:42.394Z,12.60
2018-10-07T03:28:10.868Z,12.60
2018-10-07T03:30:39.290Z,12.60
2018-10-07T03:33:07.738Z,12.60
2018-10-07T03:35:36.162Z,12.60
2018-10-07T03:38:04.660Z,12.60
2018-10-07T03:40:33.377Z,12.50
2018-10-07T03:43:01.800Z,12.50
2018-10-07T03:45:30.254Z,12.50
2018-10-07T03:47:58.830Z,12.50
2018-10-07T03:50:27.254Z,12.50
2018-10-07T03:52:55.778Z,12.50
2018-10-07T03:55:24.252Z,12.50
2018-10-07T03:57:52.688Z,12.50
2018-10-07T04:00:21.243Z,12.50
2018-10-07T04:02:49.706Z,12.50
2018-10-07T04:05:18.324Z,12.50
2018-10-07T04:07:46.879Z,12.50
2018-10-07T04:10:15.370Z,12.50
2018-10-07T04:12:43.862Z,12.50
2018-10-07T04:15:12.288Z,12.50
2018-10-07T04:17:40.720Z,12.50
2018-10-07T04:20:09.142Z,12.50
2018-10-07T04:22:37.558Z,12.50
2018-10-07T04:25:06.216Z,12.50
2018-10-07T04:27:34.634Z,12.50
2018-10-07T04:30:03.085Z,12.50
2018-10-07T04:32:31.558Z,12.50
2018-10-07T04:34:59.957Z,12.50
2018-10-07T04:37:28.477Z,12.50
2018-10-07T04:39:57.046Z,12.50
2018-10-07T04:42:25.417Z,12.50
2018-10-07T04:44:53.981Z,12.50
2018-10-07T04:47:22.567Z,12.50
2018-10-07T04:49:51.069Z,12.40
2018-10-07T04:52:19.513Z,12.40
2018-10-07T04:54:47.990Z,12.40
2018-10-07T04:57:16.533Z,12.40
2018-10-07T04:59:45.941Z,12.40
2018-10-07T05:02:14.439Z,12.40
2018-10-07T05:04:42.991Z,12.40
2018-10-07T05:07:11.615Z,12.30
2018-10-07T05:09:40.131Z,12.30
2018-10-07T05:12:09.495Z,12.20
2018-10-07T05:14:38.348Z,12.20
2018-10-07T05:17:07.078Z,12.20
2018-10-07T05:19:35.623Z,12.20
2018-10-07T05:22:04.207Z,12.20
2018-10-07T05:24:32.712Z,12.10
2018-10-07T05:27:01.282Z,12.10
2018-10-07T05:29:29.709Z,12.10
2018-10-07T05:31:58.159Z,12.10
2018-10-07T05:34:26.826Z,12.00
2018-10-07T05:36:55.356Z,12.00
2018-10-07T05:39:23.800Z,12.00
2018-10-07T05:41:52.350Z,11.90
2018-10-07T05:44:20.803Z,11.90
2018-10-07T05:46:49.275Z,11.90
2018-10-07T05:49:17.728Z,11.90
2018-10-07T05:51:46.206Z,11.80
2018-10-07T05:54:14.669Z,11.80
2018-10-07T05:56:43.137Z,11.80
2018-10-07T05:59:11.781Z,11.80
2018-10-07T06:01:41.907Z,11.80
2018-10-07T06:04:20.396Z,11.80
2018-10-07T06:06:49.021Z,11.80
2018-10-07T06:09:24.659Z,11.80
2018-10-07T06:11:53.629Z,11.80
2018-10-07T06:14:43.821Z,11.80
2018-10-07T06:17:13.797Z,11.70
2018-10-07T06:19:42.290Z,11.60
2018-10-07T06:22:10.890Z,11.70
2018-10-07T06:24:39.416Z,11.70
2018-10-07T06:27:07.946Z,11.70
2018-10-07T06:29:36.503Z,11.70
2018-10-07T06:32:05.183Z,11.70
2018-10-07T06:34:33.762Z,11.70
2018-10-07T06:37:02.393Z,11.60
2018-10-07T06:39:30.992Z,11.60
2018-10-07T06:41:59.583Z,11.50
2018-10-07T06:44:28.683Z,11.50
2018-10-07T06:46:57.208Z,11.50
2018-10-07T06:49:25.729Z,11.40
2018-10-07T06:51:54.347Z,11.40
2018-10-07T06:54:22.929Z,11.40
2018-10-07T06:56:51.593Z,11.40
2018-10-07T06:59:20.054Z,11.40
2018-10-07T07:01:49.499Z,11.40
2018-10-07T07:04:18.180Z,11.40
2018-10-07T07:06:46.658Z,11.40
2018-10-07T07:09:15.100Z,11.40
2018-10-07T07:11:43.534Z,11.40
2018-10-07T07:14:12.232Z,11.40
2018-10-07T07:16:40.764Z,11.40
2018-10-07T07:19:09.220Z,11.50
2018-10-07T07:21:37.858Z,11.50
2018-10-07T07:24:06.460Z,11.50
2018-10-07T07:26:35.147Z,11.50
2018-10-07T07:29:03.732Z,11.50
2018-10-07T07:31:32.269Z,11.50
2018-10-07T07:34:01.406Z,11.50
2018-10-07T07:36:30.076Z,11.50
2018-10-07T07:38:58.684Z,11.60
2018-10-07T07:41:27.350Z,11.60
2018-10-07T07:43:55.906Z,11.60
2018-10-07T07:46:24.438Z,11.50
2018-10-07T07:48:52.943Z,11.60
2018-10-07T07:51:21.462Z,11.60
2018-10-07T07:53:50.118Z,11.60
2018-10-07T07:56:18.972Z,11.60
2018-10-07T07:58:47.535Z,11.60
2018-10-07T08:01:16.779Z,11.60
2018-10-07T08:03:45.747Z,11.70
2018-10-07T08:06:14.201Z,11.70
2018-10-07T08:08:42.704Z,11.80
2018-10-07T08:11:12.062Z,11.80
2018-10-07T08:13:40.520Z,11.80
2018-10-07T08:16:09.197Z,11.90
2018-10-07T08:18:37.677Z,12.00
2018-10-07T08:21:06.145Z,12.00
2018-10-07T08:23:34.776Z,12.10
2018-10-07T08:26:03.413Z,12.10
2018-10-07T08:28:31.948Z,12.10
2018-10-07T08:31:00.590Z,12.10
2018-10-07T08:33:29.133Z,12.10
2018-10-07T08:35:57.596Z,12.10
2018-10-07T08:38:26.139Z,12.20
2018-10-07T08:40:54.579Z,12.20
2018-10-07T08:43:23.096Z,12.20
2018-10-07T08:45:51.943Z,12.20
2018-10-07T08:48:20.550Z,12.20
2018-10-07T08:50:49.003Z,12.30
2018-10-07T08:53:17.492Z,12.40
2018-10-07T08:55:46.520Z,12.40
2018-10-07T08:58:15.409Z,12.50
2018-10-07T09:00:43.881Z,12.60
2018-10-07T09:03:12.352Z,12.60
2018-10-07T09:05:40.840Z,12.60
2018-10-07T09:08:09.291Z,12.60
2018-10-07T09:10:37.915Z,12.70
2018-10-07T09:13:06.509Z,12.80
2018-10-07T09:15:35.317Z,13.00
2018-10-07T09:18:03.836Z,13.10
2018-10-07T09:20:32.366Z,13.20
2018-10-07T09:23:00.827Z,13.20
2018-10-07T09:25:29.327Z,13.10
2018-10-07T09:27:59.348Z,13.20
2018-10-07T09:30:29.099Z,13.20
2018-10-07T09:32:57.924Z,13.30
2018-10-07T09:35:26.344Z,13.20
2018-10-07T09:37:55.758Z,13.20
2018-10-07T09:40:24.289Z,13.20
2018-10-07T09:42:52.741Z,13.20
2018-10-07T09:45:21.329Z,13.30
2018-10-07T09:47:49.850Z,13.40
2018-10-07T09:50:18.438Z,13.40
2018-10-07T09:52:47.052Z,13.50
2018-10-07T09:55:15.639Z,13.50
2018-10-07T09:57:44.105Z,13.70
2018-10-07T10:00:12.698Z,13.70
2018-10-07T10:02:41.234Z,13.80
2018-10-07T10:05:09.705Z,13.90
2018-10-07T10:07:38.158Z,13.90
2018-10-07T10:10:06.651Z,13.90
2018-10-07T10:12:35.423Z,14.00
2018-10-07T10:15:04.125Z,14.10
2018-10-07T10:17:33.680Z,14.30
2018-10-07T10:20:04.820Z,14.40
2018-10-07T10:24:49.494Z,14.50
2018-10-07T10:28:26.425Z,14.60
2018-10-07T10:31:03.274Z,14.60
2018-10-07T10:33:35.488Z,14.60
2018-10-07T10:36:44.409Z,14.60
2018-10-07T10:39:21.060Z,14.50
2018-10-07T10:42:09.107Z,14.50
2018-10-07T10:44:46.685Z,14.70
2018-10-07T10:47:30.476Z,14.80
2018-10-07T10:52:15.034Z,14.80
2018-10-07T10:55:28.431Z,14.80
2018-10-07T11:14:56.947Z,14.60
2018-10-07T11:17:30.185Z,14.60
2018-10-07T11:20:25.233Z,14.80
2018-10-07T11:23:18.034Z,15.00
2018-10-07T11:25:57.349Z,15.10
2018-10-07T11:28:34.274Z,15.20
2018-10-07T11:33:29.173Z,15.30
2018-10-07T11:36:08.254Z,15.40
2018-10-07T11:39:17.930Z,15.40
2018-10-07T11:41:51.248Z,15.40
2018-10-07T11:44:31.191Z,15.50
2018-10-07T11:48:09.689Z,15.50
2018-10-07T11:52:56.475Z,15.60
2018-10-07T11:55:26.374Z,15.60
2018-10-07T11:57:55.159Z,15.70
2018-10-07T12:00:24.509Z,15.70
2018-10-07T12:02:53.249Z,15.70
2018-10-07T12:05:21.756Z,15.70
2018-10-07T12:07:50.278Z,15.60
2018-10-07T12:10:23.559Z,15.60
2018-10-07T12:12:52.392Z,15.80
2018-10-07T12:15:21.050Z,15.90
2018-10-07T12:17:49.937Z,16.00
2018-10-07T12:20:18.639Z,16.10
2018-10-07T12:22:47.345Z,16.10
2018-10-07T12:25:15.780Z,16.10
2018-10-07T12:27:44.605Z,16.10
2018-10-07T12:30:13.116Z,16.20
2018-10-07T12:32:41.812Z,16.30
2018-10-07T12:35:10.656Z,16.20
2018-10-07T12:37:39.104Z,16.30
2018-10-07T12:40:07.682Z,16.40
2018-10-07T12:49:24.032Z,16.50
2018-10-07T12:51:52.537Z,16.70
2018-10-07T12:54:21.090Z,16.70
2018-10-07T12:56:49.819Z,16.60
2018-10-07T12:59:18.585Z,16.60
2018-10-07T13:02:03.531Z,16.70
2018-10-07T13:04:32.469Z,17.00
2018-10-07T13:07:01.667Z,17.20
2018-10-07T13:09:31.034Z,17.30
2018-10-07T13:11:59.744Z,17.10
2018-10-07T13:14:28.420Z,17.10
2018-10-07T13:16:57.065Z,16.90
2018-10-07T13:19:25.655Z,16.90
2018-10-07T13:21:54.688Z,17.00
2018-10-07T13:24:23.491Z,17.00
2018-10-07T13:26:52.062Z,17.20
2018-10-07T13:29:20.545Z,17.40
2018-10-07T13:31:49.645Z,17.20
2018-10-07T13:34:18.110Z,17.30
2018-10-07T13:36:46.741Z,17.20
2018-10-07T13:39:15.225Z,17.10
2018-10-07T13:41:43.737Z,17.00
2018-10-07T13:44:12.408Z,16.70
2018-10-07T13:46:41.248Z,16.60
2018-10-07T13:49:09.799Z,16.60
2018-10-07T13:51:38.315Z,16.70
2018-10-07T13:54:07.189Z,16.80
2018-10-07T13:56:36.015Z,16.80
2018-10-07T13:59:04.498Z,16.70
2018-10-07T14:01:35.465Z,16.70
2018-10-07T14:04:04.308Z,16.70
2018-10-07T14:06:41.965Z,16.60
2018-10-07T14:09:15.899Z,16.50
2018-10-07T14:11:44.472Z,16.50
2018-10-07T14:14:13.195Z,16.50
2018-10-07T14:16:41.975Z,16.40
2018-10-07T14:19:10.683Z,16.40
2018-10-07T14:21:39.277Z,16.40
2018-10-07T14:24:07.891Z,16.30
2018-10-07T14:26:36.487Z,16.20
2018-10-07T14:29:05.211Z,16.20
2018-10-07T14:31:33.806Z,16.20
2018-10-07T14:34:02.489Z,16.10
2018-10-07T14:36:30.922Z,16.00
2018-10-07T14:38:59.395Z,15.90
2018-10-07T14:41:27.893Z,15.90
2018-10-07T14:43:57.290Z,15.80
2018-10-07T14:46:25.765Z,15.80
2018-10-07T14:48:54.238Z,15.80
2018-10-07T14:51:22.690Z,15.90
2018-10-07T14:53:51.162Z,15.90
2018-10-07T14:56:19.596Z,15.90
2018-10-07T14:58:48.097Z,15.80
2018-10-07T15:01:16.608Z,15.70
2018-10-07T15:03:45.043Z,15.70
2018-10-07T15:06:13.533Z,15.70
2018-10-07T15:08:41.985Z,15.60
2018-10-07T15:11:10.480Z,15.60
2018-10-07T15:13:38.993Z,15.60
2018-10-07T15:16:07.519Z,15.60
2018-10-07T15:18:35.998Z,15.50
2018-10-07T15:21:04.511Z,15.40
2018-10-07T15:23:33.078Z,15.40
2018-10-07T15:26:01.641Z,15.40
2018-10-07T15:28:30.070Z,15.40
2018-10-07T15:30:58.552Z,15.40
2018-10-07T15:33:27.029Z,15.30
2018-10-07T15:35:55.497Z,15.30
2018-10-07T15:38:23.974Z,15.30
2018-10-07T15:40:52.430Z,15.20
2018-10-07T15:43:20.853Z,15.10
2018-10-07T15:45:49.310Z,15.10
2018-10-07T15:48:17.762Z,15.10
2018-10-07T15:50:46.199Z,15.10
2018-10-07T15:53:14.646Z,15.10
2018-10-07T15:55:43.209Z,15.10
2018-10-07T15:58:11.665Z,15.10
2018-10-07T16:00:40.124Z,15.10
2018-10-07T16:03:08.632Z,15.10
2018-10-07T16:05:37.107Z,15.00
2018-10-07T16:08:05.670Z,15.00
2018-10-07T16:10:34.173Z,15.00
2018-10-07T16:13:02.612Z,14.90
2018-10-07T16:15:31.079Z,14.90
2018-10-07T16:17:59.657Z,14.80
2018-10-07T16:20:28.155Z,14.80
2018-10-07T16:22:56.916Z,14.80
2018-10-07T16:25:25.500Z,14.80
2018-10-07T16:27:53.964Z,14.80
2018-10-07T16:30:22.402Z,14.70
2018-10-07T16:32:50.876Z,14.70
2018-10-07T16:35:20.068Z,14.70
2018-10-07T16:37:48.659Z,14.60
2018-10-07T16:40:17.144Z,14.60
2018-10-07T16:42:45.612Z,14.50
2018-10-07T16:45:14.203Z,14.50
2018-10-07T16:47:42.718Z,14.40
2018-10-07T16:50:11.221Z,14.40
2018-10-07T16:52:39.699Z,14.30
2018-10-07T16:55:08.281Z,14.20
2018-10-07T16:57:36.864Z,14.20
2018-10-07T17:00:05.326Z,14.10
2018-10-07T17:02:33.772Z,14.10
2018-10-07T17:05:02.730Z,14.00
2018-10-07T17:07:31.233Z,13.90
2018-10-07T17:09:59.817Z,13.80
2018-10-07T17:12:28.375Z,13.80
2018-10-07T17:14:56.931Z,13.70
2018-10-07T17:17:25.428Z,13.70
2018-10-07T17:19:54.022Z,13.70
2018-10-07T17:22:22.737Z,13.60
2018-10-07T17:24:51.176Z,13.50
2018-10-07T17:27:19.645Z,13.50
2018-10-07T17:29:48.092Z,13.40
2018-10-07T17:32:16.583Z,13.30
2018-10-07T17:34:45.020Z,13.30
2018-10-07T17:37:13.461Z,13.20
2018-10-07T17:39:41.975Z,13.10
2018-10-07T17:42:10.479Z,13.10
2018-10-07T17:44:38.945Z,13.00
2018-10-07T17:47:07.458Z,13.00
2018-10-07T17:49:35.909Z,12.90
2018-10-07T17:52:04.950Z,12.90
2018-10-07T17:54:33.510Z,12.90
2018-10-07T17:57:01.947Z,12.80
2018-10-07T17:59:30.518Z,12.80
2018-10-07T18:01:59.019Z,12.80
2018-10-07T18:04:27.483Z,12.80
2018-10-07T18:06:55.971Z,12.80
2018-10-07T18:09:24.409Z,12.70
2018-10-07T18:11:53.397Z,12.70
2018-10-07T18:14:21.852Z,12.60
2018-10-07T18:16:52.136Z,12.60
2018-10-07T18:19:20.745Z,12.50
2018-10-07T18:21:49.347Z,12.50
2018-10-07T18:24:17.779Z,12.40
2018-10-07T18:26:46.237Z,12.30
2018-10-07T18:29:14.736Z,12.30
2018-10-07T18:31:43.805Z,12.20
2018-10-07T18:34:12.286Z,12.20
2018-10-07T18:36:40.793Z,12.20
2018-10-07T18:39:09.666Z,12.10
2018-10-07T18:41:39.171Z,12.10
2018-10-07T18:44:07.986Z,12.00
2018-10-07T18:46:36.551Z,12.00
2018-10-07T18:49:06.039Z,11.90
2018-10-07T18:51:34.493Z,12.00
2018-10-07T18:54:03.013Z,11.90
2018-10-07T18:56:31.679Z,11.90
2018-10-07T18:59:00.185Z,11.90
2018-10-07T19:01:28.693Z,11.80
2018-10-07T19:03:57.117Z,11.80
2018-10-07T19:06:25.546Z,11.70
2018-10-07T19:08:54.076Z,11.70
2018-10-07T19:11:22.535Z,11.70
2018-10-07T19:13:51.076Z,11.70
2018-10-07T19:16:19.588Z,11.70
2018-10-07T19:18:48.129Z,11.60
2018-10-07T19:21:16.628Z,11.60
2018-10-07T19:23:45.178Z,11.60
2018-10-07T19:26:13.798Z,11.60
2018-10-07T19:28:42.261Z,11.50
2018-10-07T19:31:10.739Z,11.50
2018-10-07T19:33:39.430Z,11.40
2018-10-07T19:36:08.015Z,11.40
2018-10-07T19:38:36.550Z,11.30
2018-10-07T19:41:05.049Z,11.30
2018-10-07T19:43:33.542Z,11.30
2018-10-07T19:46:02.018Z,11.30
2018-10-07T19:48:30.460Z,11.30
2018-10-07T19:50:58.891Z,11.30
2018-10-07T19:53:27.467Z,11.20
2018-10-07T19:55:56.042Z,11.20
2018-10-07T19:58:24.539Z,11.20
2018-10-07T20:00:53.152Z,11.20
2018-10-07T20:03:22.621Z,11.20
2018-10-07T20:05:51.101Z,11.20
2018-10-07T20:08:19.566Z,11.10
2018-10-07T20:10:48.058Z,11.10
2018-10-07T20:13:16.541Z,11.10
2018-10-07T20:15:45.061Z,11.10
2018-10-07T20:18:14.078Z,11.00
2018-10-07T20:20:42.841Z,11.00
2018-10-07T20:23:11.413Z,11.00
2018-10-07T20:25:39.977Z,11.00
2018-10-07T20:28:08.429Z,11.00
2018-10-07T20:30:37.098Z,11.00
2018-10-07T20:33:05.523Z,10.90
2018-10-07T20:35:33.949Z,11.00
2018-10-07T20:38:02.434Z,10.90
2018-10-07T20:40:30.939Z,10.90
2018-10-07T20:42:59.501Z,10.90
2018-10-07T20:45:28.057Z,10.80
2018-10-07T20:47:56.573Z,10.80
2018-10-07T20:50:25.339Z,10.70
2018-10-07T20:52:53.482Z,10.60
2018-10-07T20:55:22.081Z,10.60
2018-10-07T20:57:50.555Z,10.50
2018-10-07T21:00:19.172Z,10.50
2018-10-07T21:02:47.683Z,10.50
2018-10-07T21:05:16.075Z,10.50
2018-10-07T21:07:44.531Z,10.50
2018-10-07T21:10:12.972Z,10.40
2018-10-07T21:12:41.411Z,10.40
2018-10-07T21:15:09.873Z,10.40
2018-10-07T21:17:38.347Z,10.40
2018-10-07T21:20:06.919Z,10.30
2018-10-07T21:22:35.822Z,10.20
2018-10-07T21:25:05.315Z,10.20
2018-10-07T21:27:33.914Z,10.10
2018-10-07T21:30:02.751Z,10.10
2018-10-07T21:32:31.351Z,10.00
2018-10-07T21:34:59.807Z,10.00
2018-10-07T21:37:28.275Z,9.90
2018-10-07T21:39:56.741Z,9.90
2018-10-07T21:42:25.163Z,9.90
2018-10-07T21:44:53.599Z,9.90
2018-10-07T21:47:22.031Z,9.80
2018-10-07T21:49:50.481Z,9.70
2018-10-07T21:52:19.071Z,9.70
2018-10-07T21:54:47.497Z,9.70
2018-10-07T21:57:15.983Z,9.70
2018-10-07T21:59:44.440Z,9.70
2018-10-07T22:02:13.209Z,9.60
2018-10-07T22:04:41.769Z,9.60
2018-10-07T22:07:10.844Z,9.60
2018-10-07T22:09:39.293Z,9.50
2018-10-07T22:12:07.885Z,9.50
2018-10-07T22:14:36.423Z,9.40
2018-10-07T22:17:04.920Z,9.40
2018-10-07T22:19:33.336Z,9.40
2018-10-07T22:22:01.952Z,9.40
2018-10-07T22:24:31.198Z,9.30
2018-10-07T22:26:59.732Z,9.30
2018-10-07T22:29:28.142Z,9.30
2018-10-07T22:31:56.560Z,9.20
2018-10-07T22:34:25.055Z,9.20
2018-10-07T22:36:53.497Z,9.20
2018-10-07T22:39:21.999Z,9.20
2018-10-07T22:41:50.589Z,9.10
2018-10-07T22:44:19.262Z,9.10
2018-10-07T22:46:47.899Z,9.00
2018-10-07T22:49:16.469Z,9.10
2018-10-07T22:51:44.972Z,9.00
2018-10-07T22:54:13.420Z,8.90
2018-10-07T22:56:41.858Z,8.90
2018-10-07T22:59:10.366Z,8.90
2018-10-07T23:01:38.804Z,8.90
2018-10-07T23:04:07.233Z,8.80
2018-10-07T23:06:35.685Z,8.80
2018-10-07T23:09:06.985Z,8.80
2018-10-07T23:11:35.546Z,8.80
2018-10-07T23:14:04.201Z,8.70
2018-10-07T23:16:32.698Z,8.70
2018-10-07T23:19:01.205Z,8.70
2018-10-07T23:21:29.711Z,8.60
2018-10-07T23:23:58.147Z,8.60
2018-10-07T23:26:26.645Z,8.60
2018-10-07T23:28:55.068Z,8.60
2018-10-07T23:31:23.525Z,8.50
2018-10-07T23:33:52.118Z,8.50
2018-10-07T23:36:20.841Z,8.50
2018-10-07T23:38:49.269Z,8.50
2018-10-07T23:41:17.764Z,8.40
2018-10-07T23:43:46.532Z,8.40
2018-10-07T23:46:15.020Z,8.40
2018-10-07T23:48:43.534Z,8.40
2018-10-07T23:51:11.956Z,8.40
2018-10-07T23:53:40.537Z,8.40
2018-10-07T23:56:09.022Z,8.30
2018-10-07T23:58:37.444Z,8.30
